createdAt,value
2023-04-29T00:00:57.975Z,51.051651
2023-04-29T00:01:58.005Z,51.051662
2023-04-29T00:02:58.107Z,51.051651
2023-04-29T00:03:58.173Z,51.051651
2023-04-29T00:04:58.087Z,51.051670
2023-04-29T00:05:58.087Z,51.051712
2023-04-29T00:06:57.921Z,51.051666
2023-04-29T00:07:57.926Z,51.051662
2023-04-29T00:08:57.907Z,51.051651
2023-04-29T00:09:57.923Z,51.051643
2023-04-29T00:10:57.906Z,51.051632
2023-04-29T00:11:57.902Z,51.051636
2023-04-29T00:12:57.895Z,51.051651
2023-04-29T00:13:57.905Z,51.051678
2023-04-29T00:14:57.887Z,51.051689
2023-04-29T00:15:57.871Z,51.051659
2023-04-29T00:16:57.865Z,51.051670
2023-04-29T00:17:57.871Z,51.051685
2023-04-29T00:18:57.856Z,51.051689
2023-04-29T00:19:57.855Z,51.051678
2023-04-29T00:20:57.836Z,51.051697
2023-04-29T00:21:57.832Z,51.051682
2023-04-29T00:22:57.809Z,51.051678
2023-04-29T00:23:57.802Z,51.051674
2023-04-29T00:24:57.814Z,51.051674
2023-04-29T00:25:57.797Z,51.051678
2023-04-29T00:26:57.786Z,51.051685
2023-04-29T00:27:57.768Z,51.051693
2023-04-29T00:28:57.779Z,51.051670
2023-04-29T00:29:57.786Z,51.051670
2023-04-29T00:30:57.766Z,51.051674
2023-04-29T00:31:57.746Z,51.051712
2023-04-29T00:32:57.781Z,51.051701
2023-04-29T00:33:57.751Z,51.051685
2023-04-29T00:34:57.753Z,51.051682
2023-04-29T00:35:57.735Z,51.051674
2023-04-29T00:36:57.715Z,51.051704
2023-04-29T00:37:57.712Z,51.051640
2023-04-29T00:38:57.705Z,51.051632
2023-04-29T00:39:57.771Z,51.051659
2023-04-29T00:40:58.589Z,51.051678
2023-04-29T00:41:57.718Z,51.051682
2023-04-29T00:42:58.494Z,51.051735
2023-04-29T00:43:58.490Z,51.051746
2023-04-29T00:44:58.529Z,51.051682
2023-04-29T00:45:58.583Z,51.051682
2023-04-29T00:46:59.005Z,51.051708
2023-04-29T00:47:58.552Z,51.051701
2023-04-29T00:48:58.529Z,51.051720
2023-04-29T00:49:57.858Z,51.051720
2023-04-29T00:50:57.691Z,51.051685
2023-04-29T00:51:57.623Z,51.051674
2023-04-29T00:52:57.679Z,51.051662
2023-04-29T00:53:57.760Z,51.051640
2023-04-29T00:54:57.645Z,51.051701
2023-04-29T00:55:57.644Z,51.051704
2023-04-29T00:56:57.594Z,51.051689
2023-04-29T00:57:57.632Z,51.051659
2023-04-29T00:58:57.584Z,51.051682
2023-04-29T00:59:57.586Z,51.051708
2023-04-29T01:00:57.838Z,51.051716
2023-04-29T01:01:57.801Z,51.051701
2023-04-29T01:02:58.580Z,51.051613
2023-04-29T01:03:58.612Z,51.051670
2023-04-29T01:04:57.668Z,51.051651
2023-04-29T01:05:57.603Z,51.051617
2023-04-29T01:06:58.534Z,51.051727
2023-04-29T01:07:57.670Z,51.051704
2023-04-29T01:08:57.512Z,51.051701
2023-04-29T01:09:58.495Z,51.051716
2023-04-29T01:10:58.485Z,51.051773
2023-04-29T01:11:58.048Z,51.051807
2023-04-29T01:12:57.710Z,51.051651
2023-04-29T01:13:57.580Z,51.051689
2023-04-29T01:14:57.500Z,51.051746
2023-04-29T01:15:57.517Z,51.051743
2023-04-29T01:16:57.528Z,51.051735
2023-04-29T01:17:57.563Z,51.051929
2023-04-29T01:18:57.427Z,51.051853
2023-04-29T01:19:57.412Z,51.051754
2023-04-29T01:20:57.579Z,51.051590
2023-04-29T01:21:57.517Z,51.051662
2023-04-29T01:22:57.408Z,51.051670
2023-04-29T01:23:57.433Z,51.051838
2023-04-29T01:24:57.410Z,51.051765
2023-04-29T01:25:57.537Z,51.051758
2023-04-29T01:26:57.444Z,51.051632
2023-04-29T01:27:57.388Z,51.051716
2023-04-29T01:28:57.468Z,51.051643
2023-04-29T01:29:57.379Z,51.051559
2023-04-29T01:30:57.488Z,51.051594
2023-04-29T01:31:57.911Z,51.051701
2023-04-29T01:32:57.449Z,51.051746
2023-04-29T01:33:57.391Z,51.051640
2023-04-29T01:34:57.354Z,51.051563
2023-04-29T01:35:57.488Z,51.051643
2023-04-29T01:36:57.337Z,51.051647
2023-04-29T01:37:57.345Z,51.051662
2023-04-29T01:38:57.309Z,51.051731
2023-04-29T01:39:57.287Z,51.051731
2023-04-29T01:40:57.289Z,51.051743
2023-04-29T01:41:57.364Z,51.051720
2023-04-29T01:42:57.317Z,51.051720
2023-04-29T01:43:57.316Z,51.051689
2023-04-29T01:44:57.337Z,51.051697
2023-04-29T01:45:57.280Z,51.051643
2023-04-29T01:46:57.425Z,51.051609
2023-04-29T01:47:57.339Z,51.051590
2023-04-29T01:48:57.254Z,51.051682
2023-04-29T01:49:57.288Z,51.051670
2023-04-29T01:50:58.068Z,51.051662
2023-04-29T01:51:57.245Z,51.051624
2023-04-29T01:52:57.313Z,51.051624
2023-04-29T01:53:57.239Z,51.051655
2023-04-29T01:54:57.388Z,51.051682
2023-04-29T01:55:57.946Z,51.051617
2023-04-29T01:56:57.299Z,51.051640
2023-04-29T01:57:57.223Z,51.051655
2023-04-29T01:58:57.266Z,51.051685
2023-04-29T01:59:57.308Z,51.051670
2023-04-29T02:00:57.281Z,51.051704
2023-04-29T02:01:57.131Z,51.051689
2023-04-29T02:02:57.236Z,51.051682
2023-04-29T02:03:57.281Z,51.051613
2023-04-29T02:05:57.123Z,51.051636
2023-04-29T02:06:57.099Z,51.051655
2023-04-29T02:07:57.213Z,51.051678
2023-04-29T02:08:57.226Z,51.051651
2023-04-29T02:09:57.244Z,51.051682
2023-04-29T02:10:57.192Z,51.051693
2023-04-29T02:11:57.064Z,51.051655
2023-04-29T02:12:57.077Z,51.051643
2023-04-29T02:13:57.048Z,51.051655
2023-04-29T02:14:57.048Z,51.051674
2023-04-29T02:15:57.148Z,51.051659
2023-04-29T02:16:57.055Z,51.051655
2023-04-29T02:17:57.035Z,51.051662
2023-04-29T02:18:57.098Z,51.051659
2023-04-29T02:19:57.010Z,51.051659
2023-04-29T02:20:57.024Z,51.051659
2023-04-29T02:21:57.002Z,51.051651
2023-04-29T02:22:56.986Z,51.051682
2023-04-29T02:23:56.998Z,51.051682
2023-04-29T02:24:56.997Z,51.051640
2023-04-29T02:25:56.990Z,51.051659
2023-04-29T02:26:56.968Z,51.051685
2023-04-29T02:27:56.966Z,51.051693
2023-04-29T02:28:56.953Z,51.051697
2023-04-29T02:29:56.945Z,51.051701
2023-04-29T02:30:56.956Z,51.051632
2023-04-29T02:31:56.960Z,51.051659
2023-04-29T02:32:56.970Z,51.051651
2023-04-29T02:33:56.933Z,51.051666
2023-04-29T02:34:56.913Z,51.051678
2023-04-29T02:35:56.924Z,51.051682
2023-04-29T02:36:56.913Z,51.051659
2023-04-29T02:37:56.891Z,51.051701
2023-04-29T02:38:56.878Z,51.051769
2023-04-29T02:39:56.878Z,51.051750
2023-04-29T02:40:56.889Z,51.051662
2023-04-29T02:41:56.861Z,51.051655
2023-04-29T02:42:56.876Z,51.051704
2023-04-29T02:43:56.850Z,51.051727
2023-04-29T02:44:56.862Z,51.051727
2023-04-29T02:45:56.884Z,51.051647
2023-04-29T02:46:56.831Z,51.051727
2023-04-29T02:47:56.881Z,51.051788
2023-04-29T02:48:56.824Z,51.051693
2023-04-29T02:49:56.823Z,51.051693
2023-04-29T02:50:56.817Z,51.051666
2023-04-29T02:51:56.809Z,51.051598
2023-04-29T02:52:56.782Z,51.051670
2023-04-29T02:53:56.779Z,51.051643
2023-04-29T02:54:56.785Z,51.051651
2023-04-29T02:55:56.808Z,51.051636
2023-04-29T02:56:56.762Z,51.051662
2023-04-29T02:57:56.757Z,51.051655
2023-04-29T02:58:56.742Z,51.051647
2023-04-29T02:59:56.739Z,51.051662
2023-04-29T03:00:56.820Z,51.051651
2023-04-29T03:01:56.717Z,51.051640
2023-04-29T03:02:56.871Z,51.051624
2023-04-29T03:03:56.963Z,51.051628
2023-04-29T03:04:56.723Z,51.051655
2023-04-29T03:05:56.711Z,51.051655
2023-04-29T03:06:56.680Z,51.051651
2023-04-29T03:07:56.680Z,51.051628
2023-04-29T03:08:56.691Z,51.051620
2023-04-29T03:09:56.665Z,51.051613
2023-04-29T03:10:56.680Z,51.051624
2023-04-29T03:11:56.658Z,51.051666
2023-04-29T03:12:56.651Z,51.051624
2023-04-29T03:13:56.647Z,51.051632
2023-04-29T03:14:56.639Z,51.051632
2023-04-29T03:15:56.646Z,51.051651
2023-04-29T03:16:56.701Z,51.051617
2023-04-29T03:17:56.682Z,51.051674
2023-04-29T03:18:56.612Z,51.051620
2023-04-29T03:19:56.600Z,51.051617
2023-04-29T03:20:56.621Z,51.051628
2023-04-29T03:21:56.589Z,51.051613
2023-04-29T03:22:56.577Z,51.051640
2023-04-29T03:23:56.597Z,51.051640
2023-04-29T03:24:56.567Z,51.051632
2023-04-29T03:25:56.593Z,51.051620
2023-04-29T03:26:56.541Z,51.051655
2023-04-29T03:27:56.535Z,51.051632
2023-04-29T03:28:56.551Z,51.051662
2023-04-29T03:29:56.521Z,51.051659
2023-04-29T03:30:56.537Z,51.051632
2023-04-29T03:31:56.511Z,51.051643
2023-04-29T03:32:56.540Z,51.051651
2023-04-29T03:33:56.490Z,51.051685
2023-04-29T03:34:56.491Z,51.051655
2023-04-29T03:35:56.492Z,51.051662
2023-04-29T03:36:56.471Z,51.051643
2023-04-29T03:37:56.463Z,51.051647
2023-04-29T03:38:56.459Z,51.051643
2023-04-29T03:39:56.442Z,51.051636
2023-04-29T03:40:56.480Z,51.051651
2023-04-29T03:41:56.444Z,51.051643
2023-04-29T03:42:56.425Z,51.051636
2023-04-29T03:43:56.634Z,51.051640
2023-04-29T03:44:56.403Z,51.051643
2023-04-29T03:45:56.433Z,51.051624
2023-04-29T03:46:56.403Z,51.051571
2023-04-29T03:47:56.401Z,51.051689
2023-04-29T03:48:56.382Z,51.051685
2023-04-29T03:49:56.398Z,51.051662
2023-04-29T03:50:56.417Z,51.051605
2023-04-29T03:51:56.363Z,51.051609
2023-04-29T03:52:56.379Z,51.051624
2023-04-29T03:53:56.363Z,51.051624
2023-04-29T03:54:56.359Z,51.051624
2023-04-29T03:55:56.360Z,51.051632
2023-04-29T03:56:56.543Z,51.051666
2023-04-29T03:57:56.378Z,51.051655
2023-04-29T03:58:56.325Z,51.051651
2023-04-29T03:59:56.331Z,51.051647
2023-04-29T04:00:56.330Z,51.051693
2023-04-29T04:01:56.360Z,51.051632
2023-04-29T04:02:56.481Z,51.051662
2023-04-29T04:03:56.377Z,51.051620
2023-04-29T04:04:56.403Z,51.051643
2023-04-29T04:05:56.304Z,51.051762
2023-04-29T04:06:56.268Z,51.051773
2023-04-29T04:07:56.269Z,51.051682
2023-04-29T04:08:56.251Z,51.051651
2023-04-29T04:09:56.255Z,51.051682
2023-04-29T04:10:56.246Z,51.051689
2023-04-29T04:11:56.226Z,51.051651
2023-04-29T04:12:56.226Z,51.051647
2023-04-29T04:13:56.244Z,51.051689
2023-04-29T04:14:56.209Z,51.051632
2023-04-29T04:15:56.236Z,51.051643
2023-04-29T04:16:56.205Z,51.051632
2023-04-29T04:17:56.230Z,51.051636
2023-04-29T04:18:56.183Z,51.051647
2023-04-29T04:19:56.177Z,51.051670
2023-04-29T04:20:56.191Z,51.051678
2023-04-29T04:21:56.149Z,51.051662
2023-04-29T04:22:56.150Z,51.051647
2023-04-29T04:23:56.144Z,51.051647
2023-04-29T04:24:56.131Z,51.051632
2023-04-29T04:25:56.163Z,51.051693
2023-04-29T04:26:56.133Z,51.051697
2023-04-29T04:27:56.119Z,51.051693
2023-04-29T04:28:56.117Z,51.051685
2023-04-29T04:29:56.107Z,51.051662
2023-04-29T04:30:56.134Z,51.051659
2023-04-29T04:31:56.150Z,51.051651
2023-04-29T04:32:56.099Z,51.051662
2023-04-29T04:33:56.089Z,51.051659
2023-04-29T04:34:56.086Z,51.051643
2023-04-29T04:35:56.068Z,51.051659
2023-04-29T04:36:56.059Z,51.051662
2023-04-29T04:37:56.064Z,51.051659
2023-04-29T04:38:56.056Z,51.051670
2023-04-29T04:39:57.054Z,51.051659
2023-04-29T04:40:56.060Z,51.051643
2023-04-29T04:41:56.039Z,51.051640
2023-04-29T04:42:56.015Z,51.051670
2023-04-29T04:43:56.005Z,51.051674
2023-04-29T04:44:56.004Z,51.051723
2023-04-29T04:45:56.048Z,51.051708
2023-04-29T04:46:55.997Z,51.051659
2023-04-29T04:47:56.023Z,51.051670
2023-04-29T04:48:55.971Z,51.051682
2023-04-29T04:49:56.092Z,51.051682
2023-04-29T04:50:55.984Z,51.051701
2023-04-29T04:51:55.956Z,51.051662
2023-04-29T04:52:55.945Z,51.051682
2023-04-29T04:53:55.958Z,51.051685
2023-04-29T04:54:55.934Z,51.051651
2023-04-29T04:55:55.961Z,51.051655
2023-04-29T04:56:55.944Z,51.051685
2023-04-29T04:57:55.903Z,51.051685
2023-04-29T04:58:55.923Z,51.051666
2023-04-29T04:59:55.924Z,51.051605
2023-04-29T05:00:55.928Z,51.051647
2023-04-29T05:01:55.895Z,51.051659
2023-04-29T05:02:55.968Z,51.051640
2023-04-29T05:03:55.976Z,51.051674
2023-04-29T05:04:55.870Z,51.051685
2023-04-29T05:05:55.883Z,51.051682
2023-04-29T05:06:55.851Z,51.051659
2023-04-29T05:07:55.853Z,51.051682
2023-04-29T05:08:55.866Z,51.051659
2023-04-29T05:09:55.888Z,51.051685
2023-04-29T05:10:56.449Z,51.051651
2023-04-29T05:11:56.492Z,51.051682
2023-04-29T05:12:55.832Z,51.051670
2023-04-29T05:13:56.448Z,51.051655
2023-04-29T05:14:56.477Z,51.051674
2023-04-29T05:15:56.457Z,51.051666
2023-04-29T05:16:57.611Z,51.051670
2023-04-29T05:17:55.903Z,51.051666
2023-04-29T05:18:55.783Z,51.051651
2023-04-29T05:19:55.765Z,51.051647
2023-04-29T05:20:56.586Z,51.051628
2023-04-29T05:21:55.749Z,51.051685
2023-04-29T05:22:55.858Z,51.051659
2023-04-29T05:23:55.795Z,51.051651
2023-04-29T05:24:55.758Z,51.051636
2023-04-29T05:25:55.990Z,51.051605
2023-04-29T05:26:55.720Z,51.051624
2023-04-29T05:27:55.704Z,51.051655
2023-04-29T05:28:55.713Z,51.051643
2023-04-29T05:29:55.692Z,51.051605
2023-04-29T05:30:55.722Z,51.051632
2023-04-29T05:31:55.683Z,51.051655
2023-04-29T05:32:55.746Z,51.051655
2023-04-29T05:33:55.720Z,51.051655
2023-04-29T05:34:55.672Z,51.051659
2023-04-29T05:35:55.673Z,51.051670
2023-04-29T05:36:55.642Z,51.051647
2023-04-29T05:37:55.651Z,51.051632
2023-04-29T05:38:55.626Z,51.051662
2023-04-29T05:39:55.618Z,51.051632
2023-04-29T05:40:55.668Z,51.051666
2023-04-29T05:41:55.607Z,51.051682
2023-04-29T05:42:55.646Z,51.051697
2023-04-29T05:43:55.589Z,51.051693
2023-04-29T05:44:55.595Z,51.051624
2023-04-29T05:45:55.757Z,51.051643
2023-04-29T05:46:55.571Z,51.051624
2023-04-29T05:47:55.605Z,51.051643
2023-04-29T05:48:55.581Z,51.051617
2023-04-29T05:49:55.581Z,51.051659
2023-04-29T05:50:55.604Z,51.051655
2023-04-29T05:51:55.556Z,51.051651
2023-04-29T05:52:55.543Z,51.051613
2023-04-29T05:53:55.532Z,51.051640
2023-04-29T05:54:55.514Z,51.051620
2023-04-29T05:55:55.566Z,51.051636
2023-04-29T05:56:55.525Z,51.051617
2023-04-29T05:57:55.503Z,51.051636
2023-04-29T05:58:55.503Z,51.051640
2023-04-29T05:59:55.488Z,51.051674
2023-04-29T06:00:56.022Z,51.051682
2023-04-29T06:01:55.484Z,51.051628
2023-04-29T06:02:59.194Z,51.051643
2023-04-29T06:03:56.626Z,51.051609
2023-04-29T06:04:55.755Z,51.051620
2023-04-29T06:05:55.744Z,51.051693
2023-04-29T06:06:55.438Z,51.051636
2023-04-29T06:07:55.459Z,51.051643
2023-04-29T06:08:55.415Z,51.051647
2023-04-29T06:09:55.538Z,51.051601
2023-04-29T06:10:55.427Z,51.051678
2023-04-29T06:11:55.424Z,51.051670
2023-04-29T06:12:55.397Z,51.051678
2023-04-29T06:13:55.388Z,51.051670
2023-04-29T06:14:55.489Z,51.051624
2023-04-29T06:15:55.420Z,51.051708
2023-04-29T06:16:55.451Z,51.051666
2023-04-29T06:17:55.400Z,51.051689
2023-04-29T06:18:55.516Z,51.051651
2023-04-29T06:19:55.440Z,51.051689
2023-04-29T06:20:55.363Z,51.051708
2023-04-29T06:21:55.326Z,51.051708
2023-04-29T06:22:55.330Z,51.051670
2023-04-29T06:23:55.343Z,51.051659
2023-04-29T06:24:55.356Z,51.051647
2023-04-29T06:25:55.326Z,51.051682
2023-04-29T06:26:55.317Z,51.051643
2023-04-29T06:27:55.321Z,51.051666
2023-04-29T06:28:55.284Z,51.051682
2023-04-29T06:29:55.526Z,51.051685
2023-04-29T06:30:55.280Z,51.051693
2023-04-29T06:31:55.310Z,51.051659
2023-04-29T06:32:55.331Z,51.051708
2023-04-29T06:33:55.252Z,51.051701
2023-04-29T06:34:55.236Z,51.051674
2023-04-29T06:35:55.269Z,51.051666
2023-04-29T06:36:58.665Z,51.051666
2023-04-29T06:37:55.222Z,51.051678
2023-04-29T06:38:55.209Z,51.051716
2023-04-29T06:39:55.364Z,51.051582
2023-04-29T06:40:55.195Z,51.051613
2023-04-29T06:41:55.208Z,51.051666
2023-04-29T06:42:55.193Z,51.051670
2023-04-29T06:43:55.207Z,51.051655
2023-04-29T06:44:55.173Z,51.051647
2023-04-29T06:45:55.188Z,51.051666
2023-04-29T06:46:55.238Z,51.051655
2023-04-29T06:47:55.165Z,51.051659
2023-04-29T06:48:56.144Z,51.051662
2023-04-29T06:49:55.316Z,51.051651
2023-04-29T06:50:55.148Z,51.051685
2023-04-29T06:51:55.140Z,51.051708
2023-04-29T06:52:55.127Z,51.051670
2023-04-29T06:53:55.134Z,51.051647
2023-04-29T06:54:55.105Z,51.051628
2023-04-29T06:55:55.110Z,51.051704
2023-04-29T06:56:55.095Z,51.051708
2023-04-29T06:57:55.096Z,51.051678
2023-04-29T06:58:55.082Z,51.051666
2023-04-29T06:59:55.327Z,51.051678
2023-04-29T07:00:55.109Z,51.051674
2023-04-29T07:01:55.100Z,51.051682
2023-04-29T07:02:55.231Z,51.051632
2023-04-29T07:03:55.203Z,51.051620
2023-04-29T07:04:55.083Z,51.051655
2023-04-29T07:05:55.040Z,51.051651
2023-04-29T07:06:55.024Z,51.051636
2023-04-29T07:07:55.014Z,51.051670
2023-04-29T07:08:56.996Z,51.051647
2023-04-29T07:09:56.132Z,51.051643
2023-04-29T07:10:55.050Z,51.051651
2023-04-29T07:11:54.990Z,51.051662
2023-04-29T07:12:54.985Z,51.051662
2023-04-29T07:13:55.013Z,51.051697
2023-04-29T07:14:54.976Z,51.051678
2023-04-29T07:15:55.156Z,51.051693
2023-04-29T07:16:55.035Z,51.051682
2023-04-29T07:17:54.997Z,51.051662
2023-04-29T07:18:54.953Z,51.051643
2023-04-29T07:19:55.111Z,51.051643
2023-04-29T07:20:54.954Z,51.051643
2023-04-29T07:21:54.925Z,51.051647
2023-04-29T07:22:54.928Z,51.051636
2023-04-29T07:23:54.916Z,51.051647
2023-04-29T07:24:55.123Z,51.051655
2023-04-29T07:25:54.928Z,51.051651
2023-04-29T07:26:54.916Z,51.051659
2023-04-29T07:27:54.888Z,51.051659
2023-04-29T07:28:54.872Z,51.051632
2023-04-29T07:29:54.865Z,51.051662
2023-04-29T07:30:54.906Z,51.051655
2023-04-29T07:31:54.870Z,51.051647
2023-04-29T07:32:54.883Z,51.051647
2023-04-29T07:33:54.849Z,51.051636
2023-04-29T07:34:54.998Z,51.051624
2023-04-29T07:35:54.887Z,51.051628
2023-04-29T07:36:54.815Z,51.051617
2023-04-29T07:37:54.829Z,51.051609
2023-04-29T07:38:54.810Z,51.051636
2023-04-29T07:39:54.808Z,51.051594
2023-04-29T07:40:54.785Z,51.051582
2023-04-29T07:41:55.099Z,51.051628
2023-04-29T07:42:54.781Z,51.051617
2023-04-29T07:43:54.799Z,51.051628
2023-04-29T07:44:55.101Z,51.051620
2023-04-29T07:45:54.831Z,51.051670
2023-04-29T07:46:54.750Z,51.051647
2023-04-29T07:47:54.792Z,51.051582
2023-04-29T07:48:54.728Z,51.051624
2023-04-29T07:49:54.747Z,51.051620
2023-04-29T07:50:54.755Z,51.051579
2023-04-29T07:51:54.735Z,51.051609
2023-04-29T07:52:54.714Z,51.051640
2023-04-29T07:53:54.711Z,51.051582
2023-04-29T07:54:54.694Z,51.051628
2023-04-29T07:55:54.690Z,51.051571
2023-04-29T07:56:54.708Z,51.051601
2023-04-29T07:57:54.669Z,51.051582
2023-04-29T07:58:54.661Z,51.051579
2023-04-29T07:59:54.693Z,51.051586
2023-04-29T08:00:54.659Z,51.051620
2023-04-29T08:01:54.676Z,51.051643
2023-04-29T08:02:54.767Z,51.051613
2023-04-29T08:03:54.901Z,51.051594
2023-04-29T08:04:55.349Z,51.051651
2023-04-29T08:05:54.654Z,51.051632
2023-04-29T08:06:54.626Z,51.051647
2023-04-29T08:07:54.766Z,51.051579
2023-04-29T08:08:54.596Z,51.051598
2023-04-29T08:09:54.594Z,51.051601
2023-04-29T08:10:54.619Z,51.051628
2023-04-29T08:11:54.700Z,51.051640
2023-04-29T08:12:54.575Z,51.051704
2023-04-29T08:13:54.551Z,51.051689
2023-04-29T08:14:54.931Z,51.051682
2023-04-29T08:15:54.578Z,51.051651
2023-04-29T08:16:54.576Z,51.051643
2023-04-29T08:17:54.585Z,51.051636
2023-04-29T08:18:54.523Z,51.051651
2023-04-29T08:19:54.523Z,51.051666
2023-04-29T08:20:54.523Z,51.051624
2023-04-29T08:21:54.926Z,51.051628
2023-04-29T08:22:54.498Z,51.051636
2023-04-29T08:23:54.504Z,51.051617
2023-04-29T08:24:54.661Z,51.051643
2023-04-29T08:25:54.476Z,51.051666
2023-04-29T08:26:54.534Z,51.051651
2023-04-29T08:27:54.459Z,51.051647
2023-04-29T08:28:54.464Z,51.051643
2023-04-29T08:29:54.447Z,51.051662
2023-04-29T08:30:54.436Z,51.051643
2023-04-29T08:31:54.580Z,51.051655
2023-04-29T08:32:54.467Z,51.051682
2023-04-29T08:33:54.411Z,51.051617
2023-04-29T08:34:55.726Z,51.051624
2023-04-29T08:35:54.401Z,51.051628
2023-04-29T08:36:54.487Z,51.051594
2023-04-29T08:37:54.399Z,51.051701
2023-04-29T08:38:54.382Z,51.051643
2023-04-29T08:39:54.385Z,51.051609
2023-04-29T08:40:54.377Z,51.051643
2023-04-29T08:41:54.442Z,51.051620
2023-04-29T08:42:54.364Z,51.051693
2023-04-29T08:43:54.354Z,51.051662
2023-04-29T08:44:54.453Z,51.051674
2023-04-29T08:45:54.415Z,51.051598
2023-04-29T08:46:54.355Z,51.051594
2023-04-29T08:47:54.451Z,51.051624
2023-04-29T08:48:54.345Z,51.051632
2023-04-29T08:49:54.336Z,51.051670
2023-04-29T08:50:54.305Z,51.051704
2023-04-29T08:51:54.311Z,51.051731
2023-04-29T08:52:54.297Z,51.051670
2023-04-29T08:53:54.297Z,51.051636
2023-04-29T08:54:54.673Z,51.051693
2023-04-29T08:55:54.266Z,51.051655
2023-04-29T08:56:54.284Z,51.051651
2023-04-29T08:57:54.262Z,51.051613
2023-04-29T08:58:54.258Z,51.051712
2023-04-29T08:59:54.246Z,51.051689
2023-04-29T09:00:54.272Z,51.051651
2023-04-29T09:01:54.242Z,51.051655
2023-04-29T09:02:54.295Z,51.051662
2023-04-29T09:03:54.445Z,51.051701
2023-04-29T09:04:54.709Z,51.051693
2023-04-29T09:05:54.200Z,51.051685
2023-04-29T09:06:54.256Z,51.051640
2023-04-29T09:07:54.204Z,51.051727
2023-04-29T09:08:54.199Z,51.051632
2023-04-29T09:09:54.184Z,51.051601
2023-04-29T09:10:54.176Z,51.051582
2023-04-29T09:11:54.183Z,51.051575
2023-04-29T09:12:54.158Z,51.051567
2023-04-29T09:13:54.149Z,51.051579
2023-04-29T09:14:54.408Z,51.051575
2023-04-29T09:15:54.155Z,51.051540
2023-04-29T09:16:54.247Z,51.051556
2023-04-29T09:17:54.191Z,51.051682
2023-04-29T09:18:54.123Z,51.051487
2023-04-29T09:19:54.103Z,51.051411
2023-04-29T09:20:54.139Z,51.051426
2023-04-29T09:21:54.116Z,51.051514
2023-04-29T09:22:54.085Z,51.051609
2023-04-29T09:23:54.082Z,51.051651
2023-04-29T09:24:54.323Z,51.051552
2023-04-29T09:25:54.109Z,51.051571
2023-04-29T09:26:54.063Z,51.051510
2023-04-29T09:27:54.059Z,51.051567
2023-04-29T09:28:54.059Z,51.051620
2023-04-29T09:29:54.037Z,51.051659
2023-04-29T09:30:54.178Z,51.051617
2023-04-29T09:31:55.095Z,51.051598
2023-04-29T09:32:54.050Z,51.051590
2023-04-29T09:33:54.003Z,51.051579
2023-04-29T09:34:54.243Z,51.051632
2023-04-29T09:35:54.032Z,51.051620
2023-04-29T09:36:54.014Z,51.051651
2023-04-29T09:37:54.003Z,51.051628
2023-04-29T09:38:53.975Z,51.051521
2023-04-29T09:39:53.971Z,51.051517
2023-04-29T09:40:59.547Z,51.051525
2023-04-29T09:41:55.964Z,51.051548
2023-04-29T09:42:53.956Z,51.051632
2023-04-29T09:43:53.936Z,51.051544
2023-04-29T09:44:54.069Z,51.051540
2023-04-29T09:45:54.017Z,51.051472
2023-04-29T09:46:53.927Z,51.051575
2023-04-29T09:47:53.938Z,51.051609
2023-04-29T09:48:53.909Z,51.051601
2023-04-29T09:49:53.910Z,51.051582
2023-04-29T09:50:53.956Z,51.051643
2023-04-29T09:51:53.883Z,51.051643
2023-04-29T09:52:53.886Z,51.051620
2023-04-29T09:53:53.878Z,51.051609
2023-04-29T09:54:54.038Z,51.051640
2023-04-29T09:55:53.897Z,51.051678
2023-04-29T09:56:53.845Z,51.051594
2023-04-29T09:57:53.843Z,51.051662
2023-04-29T09:58:53.839Z,51.051643
2023-04-29T09:59:53.833Z,51.051643
2023-04-29T10:00:53.839Z,51.051662
2023-04-29T10:01:54.109Z,51.051647
2023-04-29T10:02:53.898Z,51.051632
2023-04-29T10:03:54.078Z,51.051617
2023-04-29T10:04:54.268Z,51.051636
2023-04-29T10:05:53.815Z,51.051651
2023-04-29T10:06:53.780Z,51.051636
2023-04-29T10:07:53.776Z,51.051662
2023-04-29T10:08:53.771Z,51.051659
2023-04-29T10:09:53.756Z,51.051662
2023-04-29T10:10:53.775Z,51.051666
2023-04-29T10:11:53.745Z,51.051640
2023-04-29T10:12:53.903Z,51.051640
2023-04-29T10:13:53.737Z,51.051643
2023-04-29T10:14:53.932Z,51.051662
2023-04-29T10:15:54.933Z,51.051643
2023-04-29T10:16:53.697Z,51.051647
2023-04-29T10:17:53.696Z,51.051640
2023-04-29T10:18:53.752Z,51.051647
2023-04-29T10:19:53.688Z,51.051697
2023-04-29T10:20:53.711Z,51.051655
2023-04-29T10:21:53.681Z,51.051651
2023-04-29T10:22:53.665Z,51.051651
2023-04-29T10:23:53.656Z,51.051651
2023-04-29T10:24:53.831Z,51.051643
2023-04-29T10:25:53.671Z,51.051685
2023-04-29T10:26:53.655Z,51.051685
2023-04-29T10:27:53.733Z,51.051662
2023-04-29T10:28:53.633Z,51.051655
2023-04-29T10:29:53.642Z,51.051643
2023-04-29T10:30:53.653Z,51.051735
2023-04-29T10:31:53.765Z,51.051796
2023-04-29T10:32:53.646Z,51.051674
2023-04-29T10:33:53.602Z,51.051674
2023-04-29T10:34:53.840Z,51.051674
2023-04-29T10:35:53.614Z,51.051632
2023-04-29T10:36:53.571Z,51.051701
2023-04-29T10:37:53.588Z,51.051697
2023-04-29T10:38:53.558Z,51.051620
2023-04-29T10:39:53.563Z,51.051655
2023-04-29T10:40:53.551Z,51.051586
2023-04-29T10:41:53.566Z,51.051601
2023-04-29T10:42:53.561Z,51.051666
2023-04-29T10:43:53.523Z,51.051716
2023-04-29T10:44:54.639Z,51.051739
2023-04-29T10:45:53.504Z,51.051804
2023-04-29T10:46:53.540Z,51.051685
2023-04-29T10:47:53.548Z,51.051632
2023-04-29T10:48:53.498Z,51.051643
2023-04-29T10:49:53.492Z,51.051659
2023-04-29T10:50:53.487Z,51.051689
2023-04-29T10:51:53.486Z,51.051632
2023-04-29T10:52:53.473Z,51.051659
2023-04-29T10:53:53.464Z,51.051735
2023-04-29T10:54:53.649Z,51.051647
2023-04-29T10:55:53.476Z,51.051666
2023-04-29T10:56:53.456Z,51.051682
2023-04-29T10:57:53.424Z,51.051620
2023-04-29T10:58:53.420Z,51.051659
2023-04-29T10:59:53.443Z,51.051640
2023-04-29T11:00:53.461Z,51.051632
2023-04-29T11:01:53.412Z,51.051662
2023-04-29T11:02:53.493Z,51.051655
2023-04-29T11:03:53.553Z,51.051647
2023-04-29T11:04:53.457Z,51.051624
2023-04-29T11:05:53.404Z,51.051628
2023-04-29T11:06:53.398Z,51.051640
2023-04-29T11:07:53.357Z,51.051636
2023-04-29T11:08:53.362Z,51.051617
2023-04-29T11:09:53.540Z,51.051609
2023-04-29T11:10:53.372Z,51.051640
2023-04-29T11:11:53.364Z,51.051643
2023-04-29T11:12:53.342Z,51.051628
2023-04-29T11:13:53.350Z,51.051636
2023-04-29T11:14:53.557Z,51.051647
2023-04-29T11:15:53.331Z,51.051685
2023-04-29T11:16:53.594Z,51.051666
2023-04-29T11:17:53.376Z,51.051628
2023-04-29T11:18:53.289Z,51.051632
2023-04-29T11:19:53.695Z,51.051670
2023-04-29T11:20:53.274Z,51.051620
2023-04-29T11:21:53.293Z,51.051636
2023-04-29T11:22:53.273Z,51.051682
2023-04-29T11:23:53.271Z,51.051685
2023-04-29T11:24:53.393Z,51.051666
2023-04-29T11:25:53.248Z,51.051620